South Sioux City, Nebraska
Current Conditions -  °F | °C
As of 6:52 AM on Wednesday 22 Oct 2014 (Local Time) from KSUX Reporting Station
Clear Clear  
Wind Chill: 54°   Ceiling: Unl
Heat Index: 54°   Visibility: 10mi
Dew Point: 44°   Wind: 14mph
Humidity: 69%   Direction: 150°SSE
Pressure: 30.06"   Gusts: NA
Location:  42.47°N, 96.41°W
Report Text: KSUX 221152Z AUTO 15012KT 10SM CLR 12/07 A3006 RMK AO2 SLP177 T01220067 10128 20100 53000
Loading
Personal Weather Stations






























Interactive Weather Map
Tropical Storm Tracking
New forecast layout! Learn more

10-Day Weather Forecast

Advertisements
Track Severe Weather on mobile